KNQX

Key West NAS / Boca Chica Field Airport

Key West, Florida, USA
METAR KNQX 261302Z 11010G22KT 10SM SCT023CB BKN035 OVC070 23/22 A2988 RMK AO2 RAE02 CB OHD MOV N P0003 T02330217 $
Observed Flight Rules
May-26 @ 13:02 UTC (40 minutes ago) Visual Flight Rules
Wind Visibility Clouds
110° at 10 knots
 Gusting to 22 knots
10 miles
  • Scattered at 2,300' AGL
  • Broken at 3,500' AGL
  • Overcast at 7,000' AGL
Temperatures Readings Precipitation
Current 23°C / 73°F
Dewpoint 22°C / 72°F
Humidity 94%
Altimeter 29.88" Hg
Pressure 1012 hPa
Elevation 2
Current Rain 0.03
METAR KNQX 261302Z 11010G22KT 10SM SCT023CB BKN035 OVC070 23/22 A2988 RMK AO2 RAE02 CB OHD MOV N P0003 T02330217 $
Observed Flight Rules
May-26 @ 13:02 UTC
(40 minutes ago)
VFR
Wind Visibility
110° at 10 knots
 Gusting to 22 knots
10 miles
Clouds
  • Scattered at 2,300' AGL
  • Broken at 3,500' AGL
  • Overcast at 7,000' AGL
Temperature Dewpoint
23°C / 73°F 22°C / 72°F
Humidity Altimeter Pressure
94% 29.88" Hg 1012 hPa
Current Rain
0.03